Frannie, Wyoming
Current Conditions -  °F | °C
As of 2:35 PM on Saturday 22 Nov 2014 (Local Time) from KU68 Reporting Station
Broken Clouds Broken Clouds  
Wind Chill: 31°   Ceiling: 12000
Heat Index: 39°   Visibility: 10mi
Dew Point: 32°   Wind: 14mph
Humidity: 75%   Direction: 160°SSE
Pressure: 29.42"   Gusts: NA
Location:  44.97°N, 108.62°W
Report Text: KU68 222135Z AUTO 16012KT 10SM SCT060 SCT070 BKN120 04/00 A2942 RMK AO2 PWINO
Loading
Personal Weather Stations






























Interactive Weather Map New forecast layout! Learn more

10-Day Weather Forecast

Advertisements
Track Severe Weather on mobile